Time;durP1;ratioP1;P1;durP2;ratioP2;P2;SDS_P1;SDS_P2;PMS_P1;PMS_P2;Temp;Humidity;BMP_temperature;BMP_pressure;BME280_temperature;BME280_humidity;BME280_pressure;Samples;Min_cycle;Max_cycle;Signal;HPM_P1;HPM_P2
2023/03/18 00:02:00;;;;;;;49.70;20.50;;;;;;;7.93;53.66;100677.16;682586;1263;137980;-82
2023/03/18 00:17:05;;;;;;;31.50;13.70;;;;;;;7.78;54.22;100667.78;682642;1263;137988;-81
2023/03/18 00:32:08;;;;;;;32.90;13.40;;;;;;;7.67;54.25;100661.76;682398;1261;138191;-83
2023/03/18 00:47:11;;;;;;;35.90;16.20;;;;;;;7.57;54.98;100656.47;682509;1263;138040;-81
2023/03/18 01:02:15;;;;;;;21.90;12.80;;;;;;;7.47;55.19;100644.66;682421;1259;138550;-80
2023/03/18 01:17:19;;;;;;;20.70;12.40;;;;;;;7.28;55.63;100635.13;682554;1260;138033;-79
2023/03/18 01:32:22;;;;;;;19.60;10.20;;;;;;;7.20;55.29;100622.80;682358;1263;138684;-81
2023/03/18 01:47:27;;;;;;;21.70;9.90;;;;;;;7.06;55.62;100604.69;682472;1259;138037;-84
2023/03/18 02:02:32;;;;;;;19.60;9.70;;;;;;;6.99;56.02;100598.36;682372;1259;137925;-81
2023/03/18 02:17:40;;;;;;;16.10;8.30;;;;;;;6.80;55.78;100590.88;682472;1264;137767;-80
2023/03/18 02:32:46;;;;;;;17.60;8.70;;;;;;;6.69;56.08;100597.77;682214;1262;137735;-80
2023/03/18 02:47:51;;;;;;;20.60;9.00;;;;;;;6.77;55.95;100603.12;682501;1262;137794;-81
2023/03/18 03:02:55;;;;;;;16.60;8.10;;;;;;;6.86;55.54;100597.10;682295;1262;137999;-81
2023/03/18 03:17:59;;;;;;;19.00;8.60;;;;;;;6.91;54.94;100598.72;682389;1263;137781;-83
2023/03/18 03:33:03;;;;;;;15.50;7.30;;;;;;;6.71;55.31;100598.66;682269;1259;138084;-81
2023/03/18 03:48:07;;;;;;;15.30;7.80;;;;;;;6.27;56.27;100582.41;682326;1264;137662;-82
2023/03/18 04:03:12;;;;;;;15.40;6.50;;;;;;;6.29;56.27;100577.23;682415;1262;137451;-82
2023/03/18 04:18:17;;;;;;;13.90;7.00;;;;;;;6.27;55.98;100573.89;682583;1262;138256;-81
2023/03/18 04:33:20;;;;;;;17.10;7.50;;;;;;;6.24;56.11;100583.67;682463;1262;137956;-80
2023/03/18 04:48:24;;;;;;;9.10;5.80;;;;;;;6.23;55.78;100579.71;682632;1260;137861;-81
2023/03/18 05:03:29;;;;;;;12.70;5.90;;;;;;;6.24;55.69;100566.10;682521;1260;138429;-81
2023/03/18 05:18:34;;;;;;;90.70;43.90;;;;;;;6.38;55.48;100569.17;682565;1260;137749;-80
2023/03/18 05:33:38;;;;;;;14.70;7.30;;;;;;;6.54;55.66;100566.24;682274;1265;138248;-86
2023/03/18 05:48:42;;;;;;;12.50;6.40;;;;;;;6.69;55.40;100568.73;682543;1262;138234;-81
2023/03/18 06:03:45;;;;;;;31.80;25.70;;;;;;;6.86;54.19;100570.69;682407;1260;137857;-84
2023/03/18 06:18:49;;;;;;;34.60;9.30;;;;;;;7.11;53.73;100571.45;682569;1262;137895;-81
2023/03/18 06:33:52;;;;;;;63.80;15.60;;;;;;;7.30;53.13;100571.52;682465;1262;137806;-81
2023/03/18 06:48:56;;;;;;;106.10;32.20;;;;;;;7.55;52.55;100567.48;682495;1262;138049;-85
2023/03/18 07:04:05;;;;;;;66.10;21.20;;;;;;;7.82;52.19;100558.33;682501;1260;138133;-84
2023/03/18 07:19:10;;;;;;;52.60;19.70;;;;;;;8.26;51.89;100559.14;682327;1264;137853;-82
2023/03/18 07:34:16;;;;;;;101.40;26.30;;;;;;;8.89;51.12;100568.75;682084;1262;138021;-83
2023/03/18 07:49:20;;;;;;;1649.30;515.90;;;;;;;9.41;50.53;100555.53;682610;1262;138026;-79
2023/03/18 08:04:23;;;;;;;66.10;19.70;;;;;;;9.75;49.49;100555.77;682460;1262;139024;-79
2023/03/18 08:19:27;;;;;;;65.60;17.60;;;;;;;10.16;48.58;100554.75;682315;1263;138021;-83
2023/03/18 08:34:30;;;;;;;49.30;17.20;;;;;;;10.90;47.73;100561.17;682387;1263;138188;-81
2023/03/18 08:49:34;;;;;;;30.30;10.10;;;;;;;11.82;46.38;100551.90;682499;1264;138380;-83
2023/03/18 09:04:37;;;;;;;23.50;8.40;;;;;;;12.16;46.05;100554.98;682483;1262;138106;-80
2023/03/18 09:19:40;;;;;;;14.90;6.50;;;;;;;12.93;45.41;100549.69;682665;1263;137824;-85
2023/03/18 09:34:45;;;;;;;24.50;12.40;;;;;;;13.75;44.41;100556.95;682569;1261;138324;-82
2023/03/18 09:50:04;;;;;;;14.90;7.90;;;;;;;14.59;43.43;100550.77;682653;1261;138489;-82
2023/03/18 10:05:32;;;;;;;11.90;6.60;;;;;;;14.93;43.18;100541.75;682350;1261;138155;-81
2023/03/18 10:21:07;;;;;;;16.20;8.50;;;;;;;15.12;42.69;100536.82;682420;1263;138276;-86
2023/03/18 10:36:16;;;;;;;38.20;16.10;;;;;;;14.82;42.98;100520.59;682221;1263;138027;-83
2023/03/18 10:51:34;;;;;;;18.70;8.90;;;;;;;14.49;43.70;100493.52;682482;1263;138452;-82
2023/03/18 11:06:59;;;;;;;41.30;16.70;;;;;;;14.44;44.58;100479.41;682294;1264;137927;-81
2023/03/18 11:22:12;;;;;;;24.70;12.70;;;;;;;14.44;44.31;100455.63;682188;1261;138800;-82
2023/03/18 11:37:18;;;;;;;19.70;8.20;;;;;;;14.68;45.06;100451.71;682318;1262;138300;-81
2023/03/18 11:52:33;;;;;;;13.40;7.60;;;;;;;15.09;45.00;100416.38;682180;1264;139290;-82
2023/03/18 12:07:47;;;;;;;12.50;7.20;;;;;;;15.93;44.79;100390.31;682504;1263;138155;-84
2023/03/18 12:22:56;;;;;;;14.40;8.00;;;;;;;16.43;43.88;100398.71;682310;1263;138352;-82
2023/03/18 12:38:09;;;;;;;11.40;6.00;;;;;;;16.91;42.69;100416.89;682402;1259;138343;-84
2023/03/18 12:53:19;;;;;;;13.70;7.80;;;;;;;16.57;40.84;100416.67;682470;1262;138879;-84
2023/03/18 13:08:40;;;;;;;12.60;7.20;;;;;;;16.50;41.47;100401.27;682547;1264;138233;-82
2023/03/18 13:24:31;;;;;;;26.20;13.20;;;;;;;16.71;41.76;100399.50;682766;1263;140638;-83
2023/03/18 13:39:57;;;;;;;12.80;7.20;;;;;;;16.58;42.44;100399.51;682103;1264;138707;-79
2023/03/18 13:55:12;;;;;;;208.90;90.00;;;;;;;16.24;43.11;100391.77;682473;1263;139032;-81
2023/03/18 14:10:19;;;;;;;87.70;30.50;;;;;;;17.38;42.25;100377.47;682386;1263;138760;-79
2023/03/18 14:25:39;;;;;;;42.50;15.70;;;;;;;16.92;42.47;100378.61;682343;1264;138389;-80
2023/03/18 14:40:45;;;;;;;21.80;10.90;;;;;;;16.75;42.87;100382.25;682321;1262;138239;-81
2023/03/18 14:55:50;;;;;;;65.60;32.70;;;;;;;16.98;42.83;100383.64;682567;1261;138783;-83
2023/03/18 15:10:55;;;;;;;17.10;9.90;;;;;;;16.24;43.49;100393.80;682172;1262;138323;-80
2023/03/18 15:25:58;;;;;;;20.90;9.50;;;;;;;15.38;45.02;100390.18;682271;1262;138302;-80
2023/03/18 15:41:04;;;;;;;19.10;10.60;;;;;;;15.18;45.88;100375.16;682020;1262;153980;-80
2023/03/18 15:56:25;;;;;;;22.60;15.70;;;;;;;15.11;46.88;100377.14;682399;1262;138394;-81
2023/03/18 16:11:28;;;;;;;51.20;20.70;;;;;;;14.75;47.40;100386.98;682349;1262;138644;-80
2023/03/18 16:26:35;;;;;;;183.00;75.70;;;;;;;14.50;47.55;100392.23;682476;1259;138456;-81
2023/03/18 16:41:39;;;;;;;107.20;46.90;;;;;;;14.30;48.08;100392.84;682523;1262;138846;-80
2023/03/18 16:56:42;;;;;;;111.90;59.80;;;;;;;13.98;48.69;100391.89;682496;1259;138918;-80
2023/03/18 17:11:48;;;;;;;143.30;84.20;;;;;;;13.80;48.87;100402.48;682616;1259;138392;-80
2023/03/18 17:26:53;;;;;;;49.50;27.70;;;;;;;13.40;49.57;100404.45;682532;1262;138705;-83
2023/03/18 17:41:57;;;;;;;36.90;19.40;;;;;;;13.06;50.53;100401.23;682173;1262;138576;-80
2023/03/18 17:57:00;;;;;;;78.40;36.30;;;;;;;12.78;50.94;100398.29;682381;1261;138305;-80
2023/03/18 18:12:04;;;;;;;35.00;20.60;;;;;;;12.63;51.21;100394.76;682297;1262;138461;-80
2023/03/18 18:27:11;;;;;;;63.30;27.90;;;;;;;12.62;51.24;100393.62;682446;1264;138340;-79
2023/03/18 18:42:22;;;;;;;50.00;25.20;;;;;;;12.54;51.61;100399.11;682326;1263;138855;-79
2023/03/18 18:57:30;;;;;;;58.10;25.70;;;;;;;12.53;51.57;100397.83;682706;1263;138802;-80
2023/03/18 19:12:35;;;;;;;85.00;35.00;;;;;;;12.59;51.11;100401.09;682429;1260;138207;-81
2023/03/18 19:27:47;;;;;;;51.10;21.80;;;;;;;12.72;50.98;100401.86;682349;1264;138069;-80
2023/03/18 19:42:51;;;;;;;124.60;50.40;;;;;;;12.60;51.08;100403.31;682687;1260;138071;-80
2023/03/18 19:57:56;;;;;;;62.60;22.10;;;;;;;12.32;51.44;100405.54;682310;1266;138703;-82
2023/03/18 20:13:00;;;;;;;558.70;211.10;;;;;;;12.29;51.81;100412.31;682238;1264;138279;-82
2023/03/18 20:28:13;;;;;;;116.10;49.40;;;;;;;12.25;51.94;100407.67;682118;1264;138612;-82
2023/03/18 20:43:21;;;;;;;24.90;11.90;;;;;;;12.09;51.99;100411.20;682258;1265;138463;-80
2023/03/18 20:58:27;;;;;;;45.90;21.20;;;;;;;12.08;51.99;100415.66;682255;1262;138209;-81
2023/03/18 21:13:38;;;;;;;24.40;13.90;;;;;;;11.99;52.30;100418.80;682440;1262;138391;-79
2023/03/18 21:28:42;;;;;;;149.60;61.40;;;;;;;11.80;52.65;100416.41;682500;1263;138120;-81
2023/03/18 21:43:49;;;;;;;157.10;70.40;;;;;;;11.56;53.16;100412.12;682458;1263;138301;-79
2023/03/18 21:58:54;;;;;;;96.20;44.20;;;;;;;11.12;53.96;100400.44;682541;1262;138614;-79
2023/03/18 22:13:59;;;;;;;104.10;47.00;;;;;;;10.89;54.48;100398.09;682586;1262;138084;-79
2023/03/18 22:29:03;;;;;;;85.50;38.00;;;;;;;10.53;55.24;100399.56;682361;1262;138791;-80
2023/03/18 22:44:21;;;;;;;52.00;22.40;;;;;;;10.32;55.38;100395.58;682482;1262;138451;-82
2023/03/18 22:59:25;;;;;;;35.20;19.10;;;;;;;10.16;55.98;100396.42;681974;1263;139078;-79
2023/03/18 23:14:28;;;;;;;36.00;19.10;;;;;;;9.94;56.38;100391.09;682424;1266;138133;-79
2023/03/18 23:29:32;;;;;;;33.60;16.40;;;;;;;9.70;56.79;100388.30;682411;1262;138590;-79
2023/03/18 23:44:35;;;;;;;31.60;16.20;;;;;;;9.62;56.50;100383.39;682491;1263;138248;-79
2023/03/18 23:59:38;;;;;;;33.50;16.20;;;;;;;9.68;56.57;100379.06;682492;1262;139327;-79
